sensor_id;sensor_type;location;lat;lon;timestamp;temperature;humidity
1534;DHT22;760;48.822;9.304;2023-07-16T04:07:21;18.10;99.90
1534;DHT22;760;48.822;9.304;2023-07-16T04:09:46;18.10;99.90
1534;DHT22;760;48.822;9.304;2023-07-16T04:12:12;18.10;99.90
1534;DHT22;760;48.822;9.304;2023-07-16T04:14:37;18.00;99.90
1534;DHT22;760;48.822;9.304;2023-07-16T04:17:03;18.00;99.90
1534;DHT22;760;48.822;9.304;2023-07-16T04:19:29;18.00;99.90
1534;DHT22;760;48.822;9.304;2023-07-16T04:21:55;18.00;99.90
1534;DHT22;760;48.822;9.304;2023-07-16T04:24:20;18.00;99.90
1534;DHT22;760;48.822;9.304;2023-07-16T04:26:46;18.10;99.90
1534;DHT22;760;48.822;9.304;2023-07-16T04:29:12;18.10;99.90
1534;DHT22;760;48.822;9.304;2023-07-16T04:31:37;18.10;99.90
1534;DHT22;760;48.822;9.304;2023-07-16T04:34:03;18.10;99.90
1534;DHT22;760;48.822;9.304;2023-07-16T04:36:28;18.10;99.90
1534;DHT22;760;48.822;9.304;2023-07-16T04:38:54;18.10;99.90
1534;DHT22;760;48.822;9.304;2023-07-16T04:41:20;18.20;99.90
1534;DHT22;760;48.822;9.304;2023-07-16T04:43:45;18.20;99.90
1534;DHT22;760;48.822;9.304;2023-07-16T04:46:11;18.30;99.90
1534;DHT22;760;48.822;9.304;2023-07-16T04:48:37;18.30;99.90
1534;DHT22;760;48.822;9.304;2023-07-16T04:51:03;18.30;99.90
1534;DHT22;760;48.822;9.304;2023-07-16T04:53:28;18.30;99.90
1534;DHT22;760;48.822;9.304;2023-07-16T04:55:54;18.30;99.90
1534;DHT22;760;48.822;9.304;2023-07-16T04:58:19;18.30;99.90
1534;DHT22;760;48.822;9.304;2023-07-16T05:00:45;18.40;99.90
1534;DHT22;760;48.822;9.304;2023-07-16T05:03:11;18.40;99.90
1534;DHT22;760;48.822;9.304;2023-07-16T05:05:36;18.40;99.90
1534;DHT22;760;48.822;9.304;2023-07-16T05:08:02;18.50;99.90
1534;DHT22;760;48.822;9.304;2023-07-16T05:10:28;18.60;99.90
1534;DHT22;760;48.822;9.304;2023-07-16T05:12:54;18.60;99.90
1534;DHT22;760;48.822;9.304;2023-07-16T05:15:19;18.70;99.90
1534;DHT22;760;48.822;9.304;2023-07-16T05:17:45;18.70;99.90
1534;DHT22;760;48.822;9.304;2023-07-16T05:20:11;18.70;99.90
1534;DHT22;760;48.822;9.304;2023-07-16T05:22:36;18.70;99.90
1534;DHT22;760;48.822;9.304;2023-07-16T05:25:02;18.70;99.90
1534;DHT22;760;48.822;9.304;2023-07-16T05:27:28;18.80;99.90
1534;DHT22;760;48.822;9.304;2023-07-16T05:29:54;18.80;99.90
1534;DHT22;760;48.822;9.304;2023-07-16T05:32:21;18.80;99.90
1534;DHT22;760;48.822;9.304;2023-07-16T05:34:46;18.80;99.90
1534;DHT22;760;48.822;9.304;2023-07-16T05:37:12;18.90;99.90
1534;DHT22;760;48.822;9.304;2023-07-16T05:39:38;18.90;99.90
1534;DHT22;760;48.822;9.304;2023-07-16T05:42:04;18.90;99.90
1534;DHT22;760;48.822;9.304;2023-07-16T05:44:30;18.90;99.90
1534;DHT22;760;48.822;9.304;2023-07-16T05:46:55;18.90;99.90
1534;DHT22;760;48.822;9.304;2023-07-16T05:49:21;18.90;99.90
1534;DHT22;760;48.822;9.304;2023-07-16T05:51:47;18.90;99.90
1534;DHT22;760;48.822;9.304;2023-07-16T05:54:13;19.00;99.90
1534;DHT22;760;48.822;9.304;2023-07-16T05:56:38;19.10;99.90
1534;DHT22;760;48.822;9.304;2023-07-16T05:59:04;19.30;99.90
1534;DHT22;760;48.822;9.304;2023-07-16T06:01:29;19.40;99.90
1534;DHT22;760;48.822;9.304;2023-07-16T06:03:55;19.50;99.90
1534;DHT22;760;48.822;9.304;2023-07-16T06:06:20;19.60;99.90
1534;DHT22;760;48.822;9.304;2023-07-16T06:08:46;19.60;99.90
1534;DHT22;760;48.822;9.304;2023-07-16T06:11:12;19.60;99.90
1534;DHT22;760;48.822;9.304;2023-07-16T06:13:38;19.80;99.90
1534;DHT22;760;48.822;9.304;2023-07-16T06:16:04;20.00;99.90
1534;DHT22;760;48.822;9.304;2023-07-16T06:18:30;20.20;99.90
1534;DHT22;760;48.822;9.304;2023-07-16T06:20:55;20.40;99.90
1534;DHT22;760;48.822;9.304;2023-07-16T06:23:21;20.40;99.90
1534;DHT22;760;48.822;9.304;2023-07-16T06:25:47;20.50;99.90
1534;DHT22;760;48.822;9.304;2023-07-16T06:28:14;20.50;99.90
1534;DHT22;760;48.822;9.304;2023-07-16T06:30:40;20.40;99.90
1534;DHT22;760;48.822;9.304;2023-07-16T06:33:05;20.40;99.90
1534;DHT22;760;48.822;9.304;2023-07-16T06:35:31;20.30;99.90
1534;DHT22;760;48.822;9.304;2023-07-16T06:37:57;20.20;99.90
1534;DHT22;760;48.822;9.304;2023-07-16T06:40:24;20.20;99.90
1534;DHT22;760;48.822;9.304;2023-07-16T06:42:49;20.20;99.90
1534;DHT22;760;48.822;9.304;2023-07-16T06:45:15;20.30;99.90
1534;DHT22;760;48.822;9.304;2023-07-16T06:47:40;20.30;99.90
1534;DHT22;760;48.822;9.304;2023-07-16T06:50:06;20.40;99.90
1534;DHT22;760;48.822;9.304;2023-07-16T06:52:32;20.50;99.90
1534;DHT22;760;48.822;9.304;2023-07-16T06:54:57;20.60;99.90
1534;DHT22;760;48.822;9.304;2023-07-16T06:57:23;20.80;99.90
1534;DHT22;760;48.822;9.304;2023-07-16T06:59:49;20.90;99.90
1534;DHT22;760;48.822;9.304;2023-07-16T07:02:17;21.00;99.90
1534;DHT22;760;48.822;9.304;2023-07-16T07:04:42;21.20;99.90
1534;DHT22;760;48.822;9.304;2023-07-16T07:07:08;21.30;99.90
1534;DHT22;760;48.822;9.304;2023-07-16T07:09:34;21.50;99.90
1534;DHT22;760;48.822;9.304;2023-07-16T07:11:59;21.70;99.90
1534;DHT22;760;48.822;9.304;2023-07-16T07:14:25;21.90;99.90
1534;DHT22;760;48.822;9.304;2023-07-16T07:16:51;22.20;99.90
1534;DHT22;760;48.822;9.304;2023-07-16T07:19:16;22.40;99.90
1534;DHT22;760;48.822;9.304;2023-07-16T07:21:42;22.60;99.90
1534;DHT22;760;48.822;9.304;2023-07-16T07:24:07;22.80;99.90
1534;DHT22;760;48.822;9.304;2023-07-16T07:26:33;23.10;99.90
1534;DHT22;760;48.822;9.304;2023-07-16T07:28:58;23.20;99.90
1534;DHT22;760;48.822;9.304;2023-07-16T07:31:24;23.40;99.90
1534;DHT22;760;48.822;9.304;2023-07-16T07:33:50;23.70;99.90
1534;DHT22;760;48.822;9.304;2023-07-16T07:36:15;24.00;99.90
1534;DHT22;760;48.822;9.304;2023-07-16T07:38:41;24.60;99.90
1534;DHT22;760;48.822;9.304;2023-07-16T07:41:06;25.10;99.90
1534;DHT22;760;48.822;9.304;2023-07-16T07:43:32;25.50;99.90
1534;DHT22;760;48.822;9.304;2023-07-16T07:45:58;26.30;99.90
1534;DHT22;760;48.822;9.304;2023-07-16T07:48:23;27.00;99.90
1534;DHT22;760;48.822;9.304;2023-07-16T07:50:49;27.20;99.90
1534;DHT22;760;48.822;9.304;2023-07-16T07:53:16;27.50;99.90
1534;DHT22;760;48.822;9.304;2023-07-16T07:55:43;27.70;97.90
1534;DHT22;760;48.822;9.304;2023-07-16T07:58:09;27.70;96.20
1534;DHT22;760;48.822;9.304;2023-07-16T08:00:35;27.50;95.40
1534;DHT22;760;48.822;9.304;2023-07-16T08:03:00;27.10;95.80
1534;DHT22;760;48.822;9.304;2023-07-16T08:12:10;26.70;95.70
1534;DHT22;760;48.822;9.304;2023-07-16T08:14:36;26.50;97.30
1534;DHT22;760;48.822;9.304;2023-07-16T08:17:01;26.30;98.10
1534;DHT22;760;48.822;9.304;2023-07-16T08:19:27;26.80;98.20
1534;DHT22;760;48.822;9.304;2023-07-16T08:21:53;27.00;96.30
1534;DHT22;760;48.822;9.304;2023-07-16T08:24:18;26.90;95.80
1534;DHT22;760;48.822;9.304;2023-07-16T08:26:44;27.00;96.50
1534;DHT22;760;48.822;9.304;2023-07-16T08:29:10;27.80;97.10
1534;DHT22;760;48.822;9.304;2023-07-16T08:31:36;28.20;96.50
1534;DHT22;760;48.822;9.304;2023-07-16T08:34:01;28.60;94.10
1534;DHT22;760;48.822;9.304;2023-07-16T08:36:27;28.70;92.70
1534;DHT22;760;48.822;9.304;2023-07-16T08:38:53;29.00;91.80
1534;DHT22;760;48.822;9.304;2023-07-16T08:41:18;29.00;91.40
1534;DHT22;760;48.822;9.304;2023-07-16T08:43:47;29.00;93.20
1534;DHT22;760;48.822;9.304;2023-07-16T08:46:17;28.90;93.10
1534;DHT22;760;48.822;9.304;2023-07-16T08:48:44;28.70;92.80
1534;DHT22;760;48.822;9.304;2023-07-16T08:51:10;28.90;94.20
1534;DHT22;760;48.822;9.304;2023-07-16T08:53:39;29.50;93.20
1534;DHT22;760;48.822;9.304;2023-07-16T08:56:04;30.30;92.50
1534;DHT22;760;48.822;9.304;2023-07-16T08:58:31;30.60;92.00
1534;DHT22;760;48.822;9.304;2023-07-16T09:00:58;30.60;91.40
1534;DHT22;760;48.822;9.304;2023-07-16T09:03:24;30.70;90.70
1534;DHT22;760;48.822;9.304;2023-07-16T09:05:50;30.50;90.10
1534;DHT22;760;48.822;9.304;2023-07-16T09:08:16;30.10;85.60
1534;DHT22;760;48.822;9.304;2023-07-16T09:10:43;29.50;88.50
1534;DHT22;760;48.822;9.304;2023-07-16T09:13:09;29.50;91.00
1534;DHT22;760;48.822;9.304;2023-07-16T09:15:34;30.10;90.50
1534;DHT22;760;48.822;9.304;2023-07-16T09:18:00;30.80;85.30
1534;DHT22;760;48.822;9.304;2023-07-16T09:20:26;31.50;87.00
1534;DHT22;760;48.822;9.304;2023-07-16T09:22:56;32.30;82.80
1534;DHT22;760;48.822;9.304;2023-07-16T09:25:29;33.10;79.30
1534;DHT22;760;48.822;9.304;2023-07-16T09:27:55;33.60;76.10
1534;DHT22;760;48.822;9.304;2023-07-16T09:30:20;34.30;75.90
1534;DHT22;760;48.822;9.304;2023-07-16T09:32:46;35.00;71.80
1534;DHT22;760;48.822;9.304;2023-07-16T09:35:14;35.30;73.60
1534;DHT22;760;48.822;9.304;2023-07-16T09:37:43;35.60;69.40
1534;DHT22;760;48.822;9.304;2023-07-16T09:40:12;35.60;67.30
1534;DHT22;760;48.822;9.304;2023-07-16T09:42:42;35.90;69.70
1534;DHT22;760;48.822;9.304;2023-07-16T09:45:12;36.50;67.60
1534;DHT22;760;48.822;9.304;2023-07-16T09:47:39;37.10;64.50
1534;DHT22;760;48.822;9.304;2023-07-16T09:50:05;37.40;64.40
1534;DHT22;760;48.822;9.304;2023-07-16T09:52:32;37.80;59.30
1534;DHT22;760;48.822;9.304;2023-07-16T09:55:01;38.10;59.10
1534;DHT22;760;48.822;9.304;2023-07-16T09:57:28;38.40;62.10
1534;DHT22;760;48.822;9.304;2023-07-16T09:59:56;38.70;57.40
1534;DHT22;760;48.822;9.304;2023-07-16T10:02:24;38.40;56.80
1534;DHT22;760;48.822;9.304;2023-07-16T10:04:49;38.20;56.30
1534;DHT22;760;48.822;9.304;2023-07-16T10:07:22;37.60;55.90
1534;DHT22;760;48.822;9.304;2023-07-16T10:09:54;36.70;56.30
1534;DHT22;760;48.822;9.304;2023-07-16T10:12:22;36.40;59.10
1534;DHT22;760;48.822;9.304;2023-07-16T10:14:50;36.30;57.50
1534;DHT22;760;48.822;9.304;2023-07-16T10:17:21;36.10;57.40
1534;DHT22;760;48.822;9.304;2023-07-16T10:22:18;36.80;57.30
1534;DHT22;760;48.822;9.304;2023-07-16T10:24:51;36.40;54.70
1534;DHT22;760;48.822;9.304;2023-07-16T10:27:27;36.00;56.40
1534;DHT22;760;48.822;9.304;2023-07-16T10:29:52;36.10;56.90
1534;DHT22;760;48.822;9.304;2023-07-16T10:32:20;36.10;56.70
1534;DHT22;760;48.822;9.304;2023-07-16T10:34:46;36.20;58.50
1534;DHT22;760;48.822;9.304;2023-07-16T10:37:11;36.50;59.90
1534;DHT22;760;48.822;9.304;2023-07-16T10:39:46;36.50;59.00
1534;DHT22;760;48.822;9.304;2023-07-16T10:42:12;36.70;57.40
1534;DHT22;760;48.822;9.304;2023-07-16T10:44:39;36.80;56.80
1534;DHT22;760;48.822;9.304;2023-07-16T10:47:05;36.40;56.50
1534;DHT22;760;48.822;9.304;2023-07-16T10:49:31;36.20;59.50
1534;DHT22;760;48.822;9.304;2023-07-16T10:51:59;35.90;59.30
1534;DHT22;760;48.822;9.304;2023-07-16T10:54:25;35.80;61.60
1534;DHT22;760;48.822;9.304;2023-07-16T10:56:51;35.60;58.60
1534;DHT22;760;48.822;9.304;2023-07-16T10:59:17;35.60;60.10
1534;DHT22;760;48.822;9.304;2023-07-16T11:01:43;35.20;59.90
1534;DHT22;760;48.822;9.304;2023-07-16T11:04:09;34.60;61.00
1534;DHT22;760;48.822;9.304;2023-07-16T11:06:34;33.40;61.60
1534;DHT22;760;48.822;9.304;2023-07-16T11:09:10;32.30;62.40
1534;DHT22;760;48.822;9.304;2023-07-16T11:11:37;31.40;66.30
1534;DHT22;760;48.822;9.304;2023-07-16T11:14:06;31.00;64.40
1534;DHT22;760;48.822;9.304;2023-07-16T11:16:36;30.20;67.20
1534;DHT22;760;48.822;9.304;2023-07-16T11:19:05;29.60;71.60
1534;DHT22;760;48.822;9.304;2023-07-16T11:21:33;29.10;71.90
1534;DHT22;760;48.822;9.304;2023-07-16T11:24:14;28.80;73.90
1534;DHT22;760;48.822;9.304;2023-07-16T11:26:52;28.30;74.00
1534;DHT22;760;48.822;9.304;2023-07-16T11:29:18;27.90;74.20
1534;DHT22;760;48.822;9.304;2023-07-16T11:31:43;27.70;79.20
1534;DHT22;760;48.822;9.304;2023-07-16T11:34:13;27.40;77.80
1534;DHT22;760;48.822;9.304;2023-07-16T11:36:39;27.30;78.70
1534;DHT22;760;48.822;9.304;2023-07-16T11:39:04;27.10;80.70
1534;DHT22;760;48.822;9.304;2023-07-16T11:41:30;27.10;78.80
1534;DHT22;760;48.822;9.304;2023-07-16T11:44:00;27.10;80.50
1534;DHT22;760;48.822;9.304;2023-07-16T11:46:31;27.10;80.50
1534;DHT22;760;48.822;9.304;2023-07-16T11:48:58;27.10;80.80
1534;DHT22;760;48.822;9.304;2023-07-16T11:51:24;27.10;81.30
1534;DHT22;760;48.822;9.304;2023-07-16T11:53:49;27.20;82.70
1534;DHT22;760;48.822;9.304;2023-07-16T11:56:15;27.30;81.00
1534;DHT22;760;48.822;9.304;2023-07-16T11:58:41;27.30;82.00
1534;DHT22;760;48.822;9.304;2023-07-16T12:01:06;27.30;84.30
1534;DHT22;760;48.822;9.304;2023-07-16T12:03:32;27.20;83.40
1534;DHT22;760;48.822;9.304;2023-07-16T12:05:58;27.10;84.40
1534;DHT22;760;48.822;9.304;2023-07-16T12:08:23;27.30;83.40
1534;DHT22;760;48.822;9.304;2023-07-16T12:10:49;27.40;85.40
1534;DHT22;760;48.822;9.304;2023-07-16T12:13:14;27.30;81.20
1534;DHT22;760;48.822;9.304;2023-07-16T12:15:40;27.30;83.50
1534;DHT22;760;48.822;9.304;2023-07-16T12:18:05;27.20;81.70
1534;DHT22;760;48.822;9.304;2023-07-16T12:20:31;27.20;83.60
1534;DHT22;760;48.822;9.304;2023-07-16T12:22:57;27.10;81.70
1534;DHT22;760;48.822;9.304;2023-07-16T12:25:22;26.90;81.90
1534;DHT22;760;48.822;9.304;2023-07-16T12:27:48;26.80;79.60
1534;DHT22;760;48.822;9.304;2023-07-16T12:30:13;26.80;83.00
1534;DHT22;760;48.822;9.304;2023-07-16T12:32:39;26.90;80.50
1534;DHT22;760;48.822;9.304;2023-07-16T12:35:05;26.90;80.80
1534;DHT22;760;48.822;9.304;2023-07-16T12:37:30;27.00;84.30
1534;DHT22;760;48.822;9.304;2023-07-16T12:39:56;27.10;83.20
1534;DHT22;760;48.822;9.304;2023-07-16T12:42:21;27.10;82.90
1534;DHT22;760;48.822;9.304;2023-07-16T12:44:47;27.00;81.50
1534;DHT22;760;48.822;9.304;2023-07-16T12:47:15;27.00;83.80
1534;DHT22;760;48.822;9.304;2023-07-16T12:49:40;27.10;85.20
1534;DHT22;760;48.822;9.304;2023-07-16T12:52:06;27.20;86.40
1534;DHT22;760;48.822;9.304;2023-07-16T12:54:33;27.50;86.20
1534;DHT22;760;48.822;9.304;2023-07-16T12:56:58;27.60;81.20
1534;DHT22;760;48.822;9.304;2023-07-16T12:59:24;27.70;82.70
1534;DHT22;760;48.822;9.304;2023-07-16T13:01:52;27.50;78.00
1534;DHT22;760;48.822;9.304;2023-07-16T13:04:18;27.40;78.20
1534;DHT22;760;48.822;9.304;2023-07-16T13:06:43;27.50;82.20
1534;DHT22;760;48.822;9.304;2023-07-16T13:09:13;27.70;76.80
1534;DHT22;760;48.822;9.304;2023-07-16T13:11:39;27.90;78.60
1534;DHT22;760;48.822;9.304;2023-07-16T13:14:05;28.00;80.60
1534;DHT22;760;48.822;9.304;2023-07-16T13:16:30;28.10;77.60
1534;DHT22;760;48.822;9.304;2023-07-16T13:18:56;28.20;77.00
1534;DHT22;760;48.822;9.304;2023-07-16T13:21:21;28.20;78.30
1534;DHT22;760;48.822;9.304;2023-07-16T13:23:47;28.20;78.60
1534;DHT22;760;48.822;9.304;2023-07-16T13:26:12;28.30;75.90
1534;DHT22;760;48.822;9.304;2023-07-16T13:28:38;28.30;74.80
1534;DHT22;760;48.822;9.304;2023-07-16T13:31:04;27.90;74.20
1534;DHT22;760;48.822;9.304;2023-07-16T13:33:29;27.70;71.80
1534;DHT22;760;48.822;9.304;2023-07-16T13:35:55;27.50;77.40
1534;DHT22;760;48.822;9.304;2023-07-16T13:38:22;27.40;80.50
1534;DHT22;760;48.822;9.304;2023-07-16T13:40:48;27.50;77.70
1534;DHT22;760;48.822;9.304;2023-07-16T13:43:13;27.60;81.30
1534;DHT22;760;48.822;9.304;2023-07-16T13:45:39;27.60;81.80
1534;DHT22;760;48.822;9.304;2023-07-16T13:48:04;27.60;79.70
1534;DHT22;760;48.822;9.304;2023-07-16T13:50:30;27.60;82.00
1534;DHT22;760;48.822;9.304;2023-07-16T13:52:56;27.60;79.00
1534;DHT22;760;48.822;9.304;2023-07-16T13:55:21;27.60;76.70
1534;DHT22;760;48.822;9.304;2023-07-16T13:57:47;27.50;76.30
1534;DHT22;760;48.822;9.304;2023-07-16T14:00:13;27.50;76.40
1534;DHT22;760;48.822;9.304;2023-07-16T14:02:42;27.50;79.50
1534;DHT22;760;48.822;9.304;2023-07-16T14:05:07;27.60;79.80
1534;DHT22;760;48.822;9.304;2023-07-16T14:07:33;27.70;79.40
1534;DHT22;760;48.822;9.304;2023-07-16T14:09:59;27.80;79.80
1534;DHT22;760;48.822;9.304;2023-07-16T14:12:24;28.00;81.30
1534;DHT22;760;48.822;9.304;2023-07-16T14:14:50;28.20;82.10
1534;DHT22;760;48.822;9.304;2023-07-16T14:17:15;28.40;78.10
1534;DHT22;760;48.822;9.304;2023-07-16T14:19:41;28.20;79.10
1534;DHT22;760;48.822;9.304;2023-07-16T14:22:07;28.10;78.00
1534;DHT22;760;48.822;9.304;2023-07-16T14:24:36;28.20;77.70
1534;DHT22;760;48.822;9.304;2023-07-16T14:27:02;28.10;77.80
1534;DHT22;760;48.822;9.304;2023-07-16T14:29:28;28.10;79.90
1534;DHT22;760;48.822;9.304;2023-07-16T14:31:55;28.10;79.60
1534;DHT22;760;48.822;9.304;2023-07-16T14:34:20;28.20;79.30
1534;DHT22;760;48.822;9.304;2023-07-16T14:36:46;28.20;77.50
1534;DHT22;760;48.822;9.304;2023-07-16T14:39:12;28.20;78.00
1534;DHT22;760;48.822;9.304;2023-07-16T14:41:37;28.10;76.90
1534;DHT22;760;48.822;9.304;2023-07-16T14:44:04;28.00;79.90
1534;DHT22;760;48.822;9.304;2023-07-16T14:46:29;28.00;79.90
1534;DHT22;760;48.822;9.304;2023-07-16T14:48:55;28.00;80.00
1534;DHT22;760;48.822;9.304;2023-07-16T14:51:22;28.00;79.40
1534;DHT22;760;48.822;9.304;2023-07-16T14:53:47;28.10;78.00
1534;DHT22;760;48.822;9.304;2023-07-16T14:56:13;28.10;77.10
1534;DHT22;760;48.822;9.304;2023-07-16T14:58:39;28.10;78.90
1534;DHT22;760;48.822;9.304;2023-07-16T15:01:04;28.10;82.20
1534;DHT22;760;48.822;9.304;2023-07-16T15:03:34;28.00;80.00
1534;DHT22;760;48.822;9.304;2023-07-16T15:06:01;28.00;78.30
1534;DHT22;760;48.822;9.304;2023-07-16T15:08:26;27.80;76.50
1534;DHT22;760;48.822;9.304;2023-07-16T15:10:53;27.50;80.00
1534;DHT22;760;48.822;9.304;2023-07-16T15:13:20;27.30;81.40
1534;DHT22;760;48.822;9.304;2023-07-16T15:15:49;27.30;81.30
1534;DHT22;760;48.822;9.304;2023-07-16T15:18:14;27.20;81.20
1534;DHT22;760;48.822;9.304;2023-07-16T15:20:40;27.10;81.40
1534;DHT22;760;48.822;9.304;2023-07-16T15:23:06;26.90;80.90
1534;DHT22;760;48.822;9.304;2023-07-16T15:25:32;26.80;82.40
1534;DHT22;760;48.822;9.304;2023-07-16T15:27:57;26.70;82.70
1534;DHT22;760;48.822;9.304;2023-07-16T15:30:24;26.50;83.50
1534;DHT22;760;48.822;9.304;2023-07-16T15:32:51;26.40;83.30
1534;DHT22;760;48.822;9.304;2023-07-16T15:35:17;26.40;83.80
1534;DHT22;760;48.822;9.304;2023-07-16T15:37:42;26.50;83.10
1534;DHT22;760;48.822;9.304;2023-07-16T15:40:13;26.50;83.00
1534;DHT22;760;48.822;9.304;2023-07-16T15:42:42;26.50;83.10
1534;DHT22;760;48.822;9.304;2023-07-16T15:45:09;26.50;84.80
1534;DHT22;760;48.822;9.304;2023-07-16T15:47:36;26.60;83.30
1534;DHT22;760;48.822;9.304;2023-07-16T15:50:02;26.50;82.70
1534;DHT22;760;48.822;9.304;2023-07-16T15:52:27;26.50;84.20
1534;DHT22;760;48.822;9.304;2023-07-16T15:54:53;26.50;84.40
1534;DHT22;760;48.822;9.304;2023-07-16T15:57:18;26.50;84.50
1534;DHT22;760;48.822;9.304;2023-07-16T15:59:44;26.50;84.30
1534;DHT22;760;48.822;9.304;2023-07-16T16:02:09;26.40;83.20
1534;DHT22;760;48.822;9.304;2023-07-16T16:04:35;26.30;83.70
1534;DHT22;760;48.822;9.304;2023-07-16T16:07:01;26.30;84.10
1534;DHT22;760;48.822;9.304;2023-07-16T16:09:29;26.30;82.00
1534;DHT22;760;48.822;9.304;2023-07-16T16:11:54;26.20;84.00
1534;DHT22;760;48.822;9.304;2023-07-16T16:14:22;26.10;84.50
1534;DHT22;760;48.822;9.304;2023-07-16T16:16:47;26.00;84.40
1534;DHT22;760;48.822;9.304;2023-07-16T16:19:18;25.90;84.70
1534;DHT22;760;48.822;9.304;2023-07-16T16:21:44;25.90;83.80
1534;DHT22;760;48.822;9.304;2023-07-16T16:24:09;25.90;84.40
1534;DHT22;760;48.822;9.304;2023-07-16T16:26:35;25.90;84.90
1534;DHT22;760;48.822;9.304;2023-07-16T16:29:00;25.80;84.10
1534;DHT22;760;48.822;9.304;2023-07-16T16:31:26;25.80;84.60
1534;DHT22;760;48.822;9.304;2023-07-16T16:33:51;25.80;85.30
1534;DHT22;760;48.822;9.304;2023-07-16T16:36:17;25.80;84.90
1534;DHT22;760;48.822;9.304;2023-07-16T16:38:42;25.80;84.20
1534;DHT22;760;48.822;9.304;2023-07-16T16:41:08;25.80;84.20
1534;DHT22;760;48.822;9.304;2023-07-16T16:43:37;25.60;83.10
1534;DHT22;760;48.822;9.304;2023-07-16T16:46:03;25.50;83.70
1534;DHT22;760;48.822;9.304;2023-07-16T16:48:29;25.50;84.20
1534;DHT22;760;48.822;9.304;2023-07-16T16:51:00;25.50;84.50
1534;DHT22;760;48.822;9.304;2023-07-16T16:53:25;25.50;83.40
1534;DHT22;760;48.822;9.304;2023-07-16T16:55:51;25.50;84.10
1534;DHT22;760;48.822;9.304;2023-07-16T16:58:17;25.50;83.60
1534;DHT22;760;48.822;9.304;2023-07-16T17:00:43;25.60;83.80
1534;DHT22;760;48.822;9.304;2023-07-16T17:03:10;25.60;82.80
1534;DHT22;760;48.822;9.304;2023-07-16T17:05:36;25.50;80.30
1534;DHT22;760;48.822;9.304;2023-07-16T17:08:01;25.50;80.40
1534;DHT22;760;48.822;9.304;2023-07-16T17:10:27;25.40;81.00
1534;DHT22;760;48.822;9.304;2023-07-16T17:12:54;25.40;80.90
1534;DHT22;760;48.822;9.304;2023-07-16T17:15:20;25.40;80.70
1534;DHT22;760;48.822;9.304;2023-07-16T17:17:46;25.40;81.00
1534;DHT22;760;48.822;9.304;2023-07-16T17:20:11;25.40;81.30
1534;DHT22;760;48.822;9.304;2023-07-16T17:22:38;25.50;81.80
1534;DHT22;760;48.822;9.304;2023-07-16T17:25:04;25.40;82.40
1534;DHT22;760;48.822;9.304;2023-07-16T17:27:35;25.40;81.80
1534;DHT22;760;48.822;9.304;2023-07-16T17:30:01;25.30;81.00
1534;DHT22;760;48.822;9.304;2023-07-16T17:32:27;25.30;79.30
1534;DHT22;760;48.822;9.304;2023-07-16T17:34:52;25.20;79.70
1534;DHT22;760;48.822;9.304;2023-07-16T17:37:18;25.20;80.40
1534;DHT22;760;48.822;9.304;2023-07-16T17:39:44;25.10;80.40
1534;DHT22;760;48.822;9.304;2023-07-16T17:42:13;25.10;81.70
1534;DHT22;760;48.822;9.304;2023-07-16T17:44:40;25.10;82.10
1534;DHT22;760;48.822;9.304;2023-07-16T17:47:05;25.10;81.70
1534;DHT22;760;48.822;9.304;2023-07-16T17:49:31;25.10;81.70
1534;DHT22;760;48.822;9.304;2023-07-16T17:51:57;25.00;81.30
1534;DHT22;760;48.822;9.304;2023-07-16T17:54:23;25.00;81.30
1534;DHT22;760;48.822;9.304;2023-07-16T17:56:52;24.90;81.60
1534;DHT22;760;48.822;9.304;2023-07-16T17:59:19;24.90;81.70
1534;DHT22;760;48.822;9.304;2023-07-16T18:01:46;24.80;81.10
1534;DHT22;760;48.822;9.304;2023-07-16T18:04:12;24.80;81.80
1534;DHT22;760;48.822;9.304;2023-07-16T18:06:38;24.80;81.70
1534;DHT22;760;48.822;9.304;2023-07-16T18:09:03;24.80;81.40
1534;DHT22;760;48.822;9.304;2023-07-16T18:11:31;24.70;81.00
1534;DHT22;760;48.822;9.304;2023-07-16T18:13:57;24.60;80.70
1534;DHT22;760;48.822;9.304;2023-07-16T18:16:23;24.50;80.90
1534;DHT22;760;48.822;9.304;2023-07-16T18:18:48;24.50;80.60
1534;DHT22;760;48.822;9.304;2023-07-16T18:21:14;24.40;80.70
1534;DHT22;760;48.822;9.304;2023-07-16T18:23:39;24.40;80.80
1534;DHT22;760;48.822;9.304;2023-07-16T18:26:05;24.30;81.30
1534;DHT22;760;48.822;9.304;2023-07-16T18:28:31;24.30;82.50
1534;DHT22;760;48.822;9.304;2023-07-16T18:30:58;24.20;81.90
1534;DHT22;760;48.822;9.304;2023-07-16T18:33:23;24.10;82.10
1534;DHT22;760;48.822;9.304;2023-07-16T18:35:55;24.10;81.80
1534;DHT22;760;48.822;9.304;2023-07-16T18:38:21;24.00;81.70
1534;DHT22;760;48.822;9.304;2023-07-16T18:40:47;23.90;82.20
1534;DHT22;760;48.822;9.304;2023-07-16T18:43:13;23.80;82.20
1534;DHT22;760;48.822;9.304;2023-07-16T18:45:38;23.80;82.50
1534;DHT22;760;48.822;9.304;2023-07-16T18:48:04;23.70;83.00
1534;DHT22;760;48.822;9.304;2023-07-16T18:50:30;23.60;82.00
1534;DHT22;760;48.822;9.304;2023-07-16T18:52:56;23.60;82.80
1534;DHT22;760;48.822;9.304;2023-07-16T18:55:23;23.50;83.40
1534;DHT22;760;48.822;9.304;2023-07-16T18:57:49;23.50;83.30
1534;DHT22;760;48.822;9.304;2023-07-16T19:00:15;23.40;82.60
1534;DHT22;760;48.822;9.304;2023-07-16T19:02:42;23.30;83.30
1534;DHT22;760;48.822;9.304;2023-07-16T19:05:08;23.20;83.40
1534;DHT22;760;48.822;9.304;2023-07-16T19:07:33;23.10;84.00
1534;DHT22;760;48.822;9.304;2023-07-16T19:09:59;23.00;85.00
1534;DHT22;760;48.822;9.304;2023-07-16T19:12:25;22.90;85.20
1534;DHT22;760;48.822;9.304;2023-07-16T19:14:52;22.80;85.00
1534;DHT22;760;48.822;9.304;2023-07-16T19:17:23;22.70;85.60
1534;DHT22;760;48.822;9.304;2023-07-16T19:19:52;22.70;86.30
1534;DHT22;760;48.822;9.304;2023-07-16T19:22:17;22.60;86.60
1534;DHT22;760;48.822;9.304;2023-07-16T19:24:43;22.60;86.40
1534;DHT22;760;48.822;9.304;2023-07-16T19:27:09;22.50;87.10
1534;DHT22;760;48.822;9.304;2023-07-16T19:29:34;22.50;87.10
1534;DHT22;760;48.822;9.304;2023-07-16T19:32:00;22.40;87.30
1534;DHT22;760;48.822;9.304;2023-07-16T19:34:26;22.40;87.50
1534;DHT22;760;48.822;9.304;2023-07-16T19:36:52;22.40;87.90
1534;DHT22;760;48.822;9.304;2023-07-16T19:39:18;22.30;88.50
1534;DHT22;760;48.822;9.304;2023-07-16T19:41:44;22.30;88.40
1534;DHT22;760;48.822;9.304;2023-07-16T19:44:11;22.30;88.70
1534;DHT22;760;48.822;9.304;2023-07-16T19:46:36;22.30;88.60
1534;DHT22;760;48.822;9.304;2023-07-16T19:49:02;22.30;88.50
1534;DHT22;760;48.822;9.304;2023-07-16T19:51:29;22.30;88.70
1534;DHT22;760;48.822;9.304;2023-07-16T19:53:55;22.30;88.00
1534;DHT22;760;48.822;9.304;2023-07-16T19:56:21;22.30;88.10
1534;DHT22;760;48.822;9.304;2023-07-16T19:58:47;22.30;88.00
1534;DHT22;760;48.822;9.304;2023-07-16T20:01:13;22.30;88.20
1534;DHT22;760;48.822;9.304;2023-07-16T20:03:41;22.30;87.90
1534;DHT22;760;48.822;9.304;2023-07-16T20:06:10;22.30;88.70
1534;DHT22;760;48.822;9.304;2023-07-16T20:08:35;22.30;88.40
1534;DHT22;760;48.822;9.304;2023-07-16T20:11:01;22.30;88.10
1534;DHT22;760;48.822;9.304;2023-07-16T20:13:26;22.30;88.10
1534;DHT22;760;48.822;9.304;2023-07-16T20:15:52;22.30;88.40
1534;DHT22;760;48.822;9.304;2023-07-16T20:18:18;22.20;88.40
1534;DHT22;760;48.822;9.304;2023-07-16T20:20:44;22.20;88.70
1534;DHT22;760;48.822;9.304;2023-07-16T20:23:10;22.20;88.90
1534;DHT22;760;48.822;9.304;2023-07-16T20:25:36;22.20;88.90